Westernville, New York
Current Conditions -  °F | °C
As of 9:28 AM on Thursday 27 Nov 2014 (Local Time) from KRME Reporting Station
Overcast Overcast  
Wind Chill: 24°   Ceiling: 2900
Heat Index: 29°   Visibility: 10mi
Dew Point: 26°   Wind: 5mph
Humidity: 89%   Direction: 260°W
Pressure: 30.03"   Gusts: NA
Location:  43.31°N, 75.38°W
Report Text: KRME 271428Z 26004KT 10SM BKN029 OVC047 M02/M03 A3003 RMK AO2 T10171033
Loading
Personal Weather Stations






























Interactive Weather Map New forecast layout! Learn more

10-Day Weather Forecast

Advertisements
Track Severe Weather on mobile